Terminal Aerodrome Forecast
Issued by NWS

Home | Current Version | Previous Version | Text Only | Print | Product List | Glossary On
Versions: 1 2 3 4 5 6 7 8 9 10 11 12 13 14 15 16 17 18 19 20 21 22 23 24 25 26 27 28 29 30 31 32 33 34
000
FTUS44 KLIX 252336
TAFHDC
TAF
KHDC 252336Z 2600/2624 13007KT P6SM VCTS SCT025CB BKN080
      TEMPO 2600/2603 2SM TSRA BKN025CB
     FM260500 VRB04KT P6SM BKN100
     FM261000 VRB04KT P6SM BKN020
     FM261300 14004KT P6SM VCSH BKN015
     FM261500 15009KT P6SM VCTS BKN025CB=

USA.gov is the U.S. government's official web portal to all federal, state and local government web resources and services.